ADDS TAF Board (Experimental) INFO

IDs: Format: Expanded Condensed

Updated at: 2223 UTC 22 Oct 2014

KCLE - Cleveland/Hopkins In, OH, US

Issued at 2203 UTC 22 Oct 2014
Time2151Z22/23Z23/00Z23/01Z23/02Z23/03Z23/04Z23/05Z23/06Z23/07Z23/08Z23/09Z23/10Z23/11Z
TypeOBSPRVLPRVLPRVLPRVLPRVLPRVLPRVLPRVLPRVLPRVLPRVLPRVLPRVL
VIS10>6>6>6>6>6>6>6>6>6>6>6>6>6
CIG4235353535353535353535------
CoverBKNBKNBKNBKNBKNBKNBKNBKNBKNBKNBKNSCTSCTSCT
FltCat--VFRVFRVFRVFRVFRVFRVFRVFRVFRVFRVFRVFRVFR
WX----------------------------
WDir10360360360360360360360360360360340340340
WSpd66666666666555
WGst----------------------------
R06/24
XWnd45555555555555
HWnd54444444444222
R10/28
XWnd66666666666555
HWnd1-0-0-0-0-0-0-0-0-0-0-2-2-2
Raw TAF
KCLE 222203Z 2222/2324 36006KT P6SM BKN035
  FM230900 34005KT P6SM SCT035
  FM231400 32008KT P6SM SCT250


Raw METAR
KCLE 222151Z 01006KT 10SM FEW032 BKN042 10/05 A3027 RMK AO2 SLP255 T01000050 $

TAF Board Legend

Hazard VFR MVFR IFR LIFR
Visibility (sm) >5 3≤X≤5 1≤X<3 <1
Ceiling (100 ft) >30 10≤X≤30 5≤X<10 <5
Wind Speed (kt) <10 10≤X<20 20≤X<30 ≥30
Wind Gust (kt) <15 15≤X<25 25≤X<35 ≥35
Weather No Wx Reported VCTS,-TS,-FZRA TS,FZRA +TS,+FZRA


Page loaded:  22:23 UTC  |   03:23 PM Pacific  |   04:23 PM Mountain  |   05:23 PM Central  |   06:23 PM Eastern

 

ADVISORIES

FORECASTS

FORECASTS

OBSERVATIONS

USER TOOLS

ABOUT US